sensor_id;sensor_type;location;lat;lon;timestamp;pressure;altitude;pressure_sealevel;temperature;humidity
22753;BME280;11543;43.144;24.684;2022-10-28T00:00:23;100141.94;;;12.32;65.20
22753;BME280;11543;43.144;24.684;2022-10-28T00:02:49;100140.81;;;12.34;65.41
22753;BME280;11543;43.144;24.684;2022-10-28T00:05:14;100145.13;;;12.47;64.94
22753;BME280;11543;43.144;24.684;2022-10-28T00:07:39;100150.81;;;12.53;64.69
22753;BME280;11543;43.144;24.684;2022-10-28T00:10:05;100131.97;;;12.53;64.57
22753;BME280;11543;43.144;24.684;2022-10-28T00:12:35;100129.88;;;12.57;64.43
22753;BME280;11543;43.144;24.684;2022-10-28T00:15:02;100147.91;;;12.66;64.18
22753;BME280;11543;43.144;24.684;2022-10-28T00:17:28;100147.63;;;12.69;64.05
22753;BME280;11543;43.144;24.684;2022-10-28T00:19:53;100142.38;;;12.67;63.91
22753;BME280;11543;43.144;24.684;2022-10-28T00:22:19;100137.44;;;12.72;63.73
22753;BME280;11543;43.144;24.684;2022-10-28T00:24:44;100136.56;;;12.72;64.03
22753;BME280;11543;43.144;24.684;2022-10-28T00:27:09;100124.50;;;12.66;63.98
22753;BME280;11543;43.144;24.684;2022-10-28T00:29:35;100129.19;;;12.64;63.93
22753;BME280;11543;43.144;24.684;2022-10-28T00:32:00;100129.19;;;12.64;63.98
22753;BME280;11543;43.144;24.684;2022-10-28T00:34:26;100126.19;;;12.58;64.11
22753;BME280;11543;43.144;24.684;2022-10-28T00:36:52;100122.19;;;12.52;64.02
22753;BME280;11543;43.144;24.684;2022-10-28T00:39:20;100133.94;;;12.51;64.56
22753;BME280;11543;43.144;24.684;2022-10-28T00:41:53;100127.41;;;12.44;64.58
22753;BME280;11543;43.144;24.684;2022-10-28T00:47:10;100130.59;;;12.07;65.19
22753;BME280;11543;43.144;24.684;2022-10-28T00:49:37;100130.03;;;11.83;65.96
22753;BME280;11543;43.144;24.684;2022-10-28T00:52:06;100141.28;;;11.77;66.56
22753;BME280;11543;43.144;24.684;2022-10-28T00:54:33;100138.41;;;11.69;67.06
22753;BME280;11543;43.144;24.684;2022-10-28T00:57:01;100139.84;;;11.73;67.69
22753;BME280;11543;43.144;24.684;2022-10-28T00:59:32;100138.81;;;11.85;67.03
22753;BME280;11543;43.144;24.684;2022-10-28T01:01:58;100139.75;;;11.95;66.62
22753;BME280;11543;43.144;24.684;2022-10-28T01:04:24;100142.63;;;12.03;66.39
22753;BME280;11543;43.144;24.684;2022-10-28T01:06:50;100129.88;;;12.05;66.17
22753;BME280;11543;43.144;24.684;2022-10-28T01:09:16;100121.41;;;12.10;65.93
22753;BME280;11543;43.144;24.684;2022-10-28T01:31:31;100116.47;;;12.36;65.06
22753;BME280;11543;43.144;24.684;2022-10-28T01:45:17;100127.25;;;12.36;64.83
22753;BME280;11543;43.144;24.684;2022-10-28T01:51:04;100125.03;;;11.99;65.75
22753;BME280;11543;43.144;24.684;2022-10-28T01:53:36;100122.38;;;11.78;66.44
22753;BME280;11543;43.144;24.684;2022-10-28T01:56:08;100132.44;;;11.65;66.66
22753;BME280;11543;43.144;24.684;2022-10-28T01:58:36;100132.38;;;11.56;67.03
22753;BME280;11543;43.144;24.684;2022-10-28T02:01:04;100138.25;;;11.49;67.23
22753;BME280;11543;43.144;24.684;2022-10-28T02:03:30;100135.31;;;11.53;67.78
22753;BME280;11543;43.144;24.684;2022-10-28T02:05:57;100135.50;;;11.61;67.30
22753;BME280;11543;43.144;24.684;2022-10-28T02:16:56;100131.19;;;11.48;67.93
22753;BME280;11543;43.144;24.684;2022-10-28T02:27:30;100137.84;;;11.33;68.94
22753;BME280;11543;43.144;24.684;2022-10-28T02:32:59;100135.03;;;11.35;68.49
22753;BME280;11543;43.144;24.684;2022-10-28T02:35:31;100139.28;;;11.37;68.29
22753;BME280;11543;43.144;24.684;2022-10-28T02:38:00;100133.56;;;11.31;68.48
22753;BME280;11543;43.144;24.684;2022-10-28T02:40:30;100125.38;;;11.32;68.27
22753;BME280;11543;43.144;24.684;2022-10-28T02:43:01;100131.88;;;11.30;68.40
22753;BME280;11543;43.144;24.684;2022-10-28T02:45:31;100128.56;;;11.26;68.09
22753;BME280;11543;43.144;24.684;2022-10-28T02:48:05;100133.22;;;11.24;68.60
22753;BME280;11543;43.144;24.684;2022-10-28T02:50:35;100117.25;;;11.11;68.60
22753;BME280;11543;43.144;24.684;2022-10-28T02:53:05;100129.38;;;11.06;69.18
22753;BME280;11543;43.144;24.684;2022-10-28T02:55:39;100131.09;;;10.96;69.24
22753;BME280;11543;43.144;24.684;2022-10-28T02:58:06;100143.06;;;10.92;69.65
22753;BME280;11543;43.144;24.684;2022-10-28T03:00:32;100129.94;;;10.77;69.67
22753;BME280;11543;43.144;24.684;2022-10-28T03:02:57;100135.53;;;10.74;70.68
22753;BME280;11543;43.144;24.684;2022-10-28T03:05:23;100137.00;;;10.78;70.70
22753;BME280;11543;43.144;24.684;2022-10-28T03:07:49;100140.91;;;10.85;70.42
22753;BME280;11543;43.144;24.684;2022-10-28T03:10:14;100139.22;;;10.73;70.35
22753;BME280;11543;43.144;24.684;2022-10-28T03:12:40;100141.66;;;10.65;70.23
22753;BME280;11543;43.144;24.684;2022-10-28T03:15:06;100139.69;;;10.67;70.65
22753;BME280;11543;43.144;24.684;2022-10-28T03:17:31;100135.19;;;10.68;70.81
22753;BME280;11543;43.144;24.684;2022-10-28T03:19:57;100132.88;;;10.63;70.82
22753;BME280;11543;43.144;24.684;2022-10-28T03:22:22;100133.84;;;10.62;71.04
22753;BME280;11543;43.144;24.684;2022-10-28T03:24:48;100133.97;;;10.61;71.01
22753;BME280;11543;43.144;24.684;2022-10-28T03:27:13;100137.03;;;10.56;70.98
22753;BME280;11543;43.144;24.684;2022-10-28T03:29:38;100131.66;;;10.56;71.18
22753;BME280;11543;43.144;24.684;2022-10-28T03:32:04;100130.56;;;10.59;71.44
22753;BME280;11543;43.144;24.684;2022-10-28T03:34:29;100127.50;;;10.63;71.65
22753;BME280;11543;43.144;24.684;2022-10-28T03:36:55;100120.44;;;10.51;71.18
22753;BME280;11543;43.144;24.684;2022-10-28T03:39:20;100136.66;;;10.72;70.87
22753;BME280;11543;43.144;24.684;2022-10-28T03:41:46;100123.34;;;10.70;70.45
22753;BME280;11543;43.144;24.684;2022-10-28T03:44:11;100113.34;;;10.72;70.22
22753;BME280;11543;43.144;24.684;2022-10-28T03:46:37;100140.38;;;10.92;70.02
22753;BME280;11543;43.144;24.684;2022-10-28T03:49:03;100140.13;;;10.95;69.80
22753;BME280;11543;43.144;24.684;2022-10-28T03:51:28;100118.31;;;10.88;70.06
22753;BME280;11543;43.144;24.684;2022-10-28T03:53:54;100125.00;;;10.94;69.96
22753;BME280;11543;43.144;24.684;2022-10-28T03:56:19;100148.03;;;11.07;69.56
22753;BME280;11543;43.144;24.684;2022-10-28T03:58:48;100156.81;;;11.09;69.43
22753;BME280;11543;43.144;24.684;2022-10-28T04:01:14;100139.50;;;11.02;69.20
22753;BME280;11543;43.144;24.684;2022-10-28T04:03:39;100138.66;;;11.02;69.18
22753;BME280;11543;43.144;24.684;2022-10-28T04:06:05;100138.88;;;11.10;69.35
22753;BME280;11543;43.144;24.684;2022-10-28T04:08:31;100126.69;;;11.06;69.18
22753;BME280;11543;43.144;24.684;2022-10-28T04:10:56;100130.81;;;11.10;68.86
22753;BME280;11543;43.144;24.684;2022-10-28T04:13:22;100138.22;;;11.17;68.78
22753;BME280;11543;43.144;24.684;2022-10-28T04:15:47;100121.78;;;11.11;68.80
22753;BME280;11543;43.144;24.684;2022-10-28T04:18:12;100132.00;;;11.17;68.73
22753;BME280;11543;43.144;24.684;2022-10-28T04:20:38;100128.72;;;11.13;69.18
22753;BME280;11543;43.144;24.684;2022-10-28T04:23:04;100125.22;;;11.02;69.35
22753;BME280;11543;43.144;24.684;2022-10-28T04:25:29;100139.59;;;11.12;69.45
22753;BME280;11543;43.144;24.684;2022-10-28T04:27:55;100134.22;;;11.12;69.03
22753;BME280;11543;43.144;24.684;2022-10-28T04:30:21;100133.97;;;11.15;68.85
22753;BME280;11543;43.144;24.684;2022-10-28T04:32:46;100141.28;;;11.24;68.86
22753;BME280;11543;43.144;24.684;2022-10-28T04:35:12;100143.94;;;11.24;68.65
22753;BME280;11543;43.144;24.684;2022-10-28T04:37:38;100140.28;;;11.25;68.18
22753;BME280;11543;43.144;24.684;2022-10-28T04:40:06;100146.03;;;11.32;68.31
22753;BME280;11543;43.144;24.684;2022-10-28T04:42:32;100147.13;;;11.29;68.16
22753;BME280;11543;43.144;24.684;2022-10-28T04:44:57;100137.47;;;11.27;68.18
22753;BME280;11543;43.144;24.684;2022-10-28T04:47:22;100114.44;;;11.13;68.19
22753;BME280;11543;43.144;24.684;2022-10-28T04:49:48;100126.31;;;11.10;68.31
22753;BME280;11543;43.144;24.684;2022-10-28T04:52:14;100104.00;;;10.99;68.52
22753;BME280;11543;43.144;24.684;2022-10-28T04:54:39;100115.47;;;11.01;68.09
22753;BME280;11543;43.144;24.684;2022-10-28T04:57:05;100139.09;;;11.18;68.13
22753;BME280;11543;43.144;24.684;2022-10-28T04:59:30;100137.97;;;11.21;68.28
22753;BME280;11543;43.144;24.684;2022-10-28T05:01:55;100128.59;;;11.15;68.22
22753;BME280;11543;43.144;24.684;2022-10-28T05:04:21;100121.69;;;11.01;68.73
22753;BME280;11543;43.144;24.684;2022-10-28T05:06:46;100132.81;;;10.97;69.00
22753;BME280;11543;43.144;24.684;2022-10-28T05:09:12;100131.38;;;10.81;69.62
22753;BME280;11543;43.144;24.684;2022-10-28T05:11:37;100110.69;;;10.61;70.03
22753;BME280;11543;43.144;24.684;2022-10-28T05:14:03;100144.31;;;10.76;70.32
22753;BME280;11543;43.144;24.684;2022-10-28T05:16:28;100121.91;;;10.66;70.45
22753;BME280;11543;43.144;24.684;2022-10-28T05:18:54;100128.00;;;10.57;70.57
22753;BME280;11543;43.144;24.684;2022-10-28T05:21:19;100146.19;;;10.65;70.94
22753;BME280;11543;43.144;24.684;2022-10-28T05:23:45;100135.06;;;10.58;71.33
22753;BME280;11543;43.144;24.684;2022-10-28T05:26:11;100152.66;;;10.62;71.48
22753;BME280;11543;43.144;24.684;2022-10-28T05:28:37;100155.31;;;10.73;71.82
22753;BME280;11543;43.144;24.684;2022-10-28T05:31:05;100131.66;;;10.56;71.10
22753;BME280;11543;43.144;24.684;2022-10-28T05:33:31;100160.31;;;10.78;71.68
22753;BME280;11543;43.144;24.684;2022-10-28T05:35:58;100149.19;;;10.82;71.46
22753;BME280;11543;43.144;24.684;2022-10-28T05:38:24;100143.81;;;10.82;70.88
22753;BME280;11543;43.144;24.684;2022-10-28T05:40:49;100143.06;;;10.92;70.63
22753;BME280;11543;43.144;24.684;2022-10-28T05:43:14;100151.84;;;11.05;70.65
22753;BME280;11543;43.144;24.684;2022-10-28T05:45:40;100158.88;;;11.17;70.74
22753;BME280;11543;43.144;24.684;2022-10-28T05:48:06;100156.91;;;11.19;70.28
22753;BME280;11543;43.144;24.684;2022-10-28T05:50:31;100143.00;;;11.14;70.28
22753;BME280;11543;43.144;24.684;2022-10-28T05:52:57;100151.06;;;11.14;70.43
22753;BME280;11543;43.144;24.684;2022-10-28T05:55:24;100161.56;;;11.28;70.12
22753;BME280;11543;43.144;24.684;2022-10-28T05:57:51;100143.00;;;11.14;70.10
22753;BME280;11543;43.144;24.684;2022-10-28T06:00:19;100171.19;;;11.31;70.18
22753;BME280;11543;43.144;24.684;2022-10-28T06:02:45;100172.03;;;11.31;70.05
22753;BME280;11543;43.144;24.684;2022-10-28T06:05:11;100172.03;;;11.31;70.28
22753;BME280;11543;43.144;24.684;2022-10-28T06:07:38;100176.91;;;11.37;70.53
22753;BME280;11543;43.144;24.684;2022-10-28T06:10:05;100174.94;;;11.39;70.50
22753;BME280;11543;43.144;24.684;2022-10-28T06:12:31;100167.88;;;11.38;70.51
22753;BME280;11543;43.144;24.684;2022-10-28T06:14:56;100166.03;;;11.39;70.57
22753;BME280;11543;43.144;24.684;2022-10-28T06:17:22;100165.91;;;11.40;70.41
22753;BME280;11543;43.144;24.684;2022-10-28T06:19:48;100178.84;;;11.46;70.40
22753;BME280;11543;43.144;24.684;2022-10-28T06:22:13;100170.16;;;11.43;70.46
22753;BME280;11543;43.144;24.684;2022-10-28T06:24:39;100173.00;;;11.41;71.21
22753;BME280;11543;43.144;24.684;2022-10-28T06:27:04;100176.66;;;11.40;71.11
22753;BME280;11543;43.144;24.684;2022-10-28T06:29:31;100159.59;;;11.30;71.54
22753;BME280;11543;43.144;24.684;2022-10-28T06:31:57;100184.47;;;11.43;72.16
22753;BME280;11543;43.144;24.684;2022-10-28T06:34:22;100180.78;;;11.44;72.17
22753;BME280;11543;43.144;24.684;2022-10-28T06:36:47;100180.91;;;11.43;72.15
22753;BME280;11543;43.144;24.684;2022-10-28T06:39:13;100187.63;;;11.48;72.91
22753;BME280;11543;43.144;24.684;2022-10-28T06:41:40;100169.56;;;11.39;73.04
22753;BME280;11543;43.144;24.684;2022-10-28T06:44:09;100188.09;;;11.54;73.37
22753;BME280;11543;43.144;24.684;2022-10-28T06:46:35;100188.56;;;11.59;73.61
22753;BME280;11543;43.144;24.684;2022-10-28T06:49:05;100185.94;;;11.68;73.14
22753;BME280;11543;43.144;24.684;2022-10-28T06:51:31;100178.72;;;11.69;73.03
22753;BME280;11543;43.144;24.684;2022-10-28T06:53:57;100186.38;;;11.85;72.97
22753;BME280;11543;43.144;24.684;2022-10-28T06:56:22;100189.41;;;11.91;72.69
22753;BME280;11543;43.144;24.684;2022-10-28T07:09:38;100192.34;;;12.91;69.73
22753;BME280;11543;43.144;24.684;2022-10-28T07:12:05;100192.88;;;12.85;70.02
22753;BME280;11543;43.144;24.684;2022-10-28T07:14:31;100182.66;;;12.79;70.44
22753;BME280;11543;43.144;24.684;2022-10-28T07:16:59;100194.72;;;12.84;70.30
22753;BME280;11543;43.144;24.684;2022-10-28T07:19:24;100187.34;;;12.76;70.61
22753;BME280;11543;43.144;24.684;2022-10-28T07:21:50;100194.16;;;12.81;70.84
22753;BME280;11543;43.144;24.684;2022-10-28T07:24:15;100181.81;;;12.78;71.14
22753;BME280;11543;43.144;24.684;2022-10-28T07:26:41;100180.41;;;12.84;70.94
22753;BME280;11543;43.144;24.684;2022-10-28T07:29:06;100182.00;;;12.96;71.05
22753;BME280;11543;43.144;24.684;2022-10-28T07:31:31;100176.25;;;13.00;71.29
22753;BME280;11543;43.144;24.684;2022-10-28T07:33:57;100179.94;;;13.09;71.18
22753;BME280;11543;43.144;24.684;2022-10-28T07:36:25;100182.81;;;13.17;70.88
22753;BME280;11543;43.144;24.684;2022-10-28T07:38:51;100177.16;;;13.20;70.75
22753;BME280;11543;43.144;24.684;2022-10-28T07:41:18;100178.03;;;13.30;70.68
22753;BME280;11543;43.144;24.684;2022-10-28T07:43:45;100184.28;;;13.41;70.49
22753;BME280;11543;43.144;24.684;2022-10-28T07:46:10;100177.03;;;13.51;70.15
22753;BME280;11543;43.144;24.684;2022-10-28T07:48:36;100178.31;;;13.66;70.26
22753;BME280;11543;43.144;24.684;2022-10-28T07:51:03;100181.72;;;13.78;69.79
22753;BME280;11543;43.144;24.684;2022-10-28T07:53:30;100183.44;;;13.88;69.45
22753;BME280;11543;43.144;24.684;2022-10-28T07:55:56;100174.78;;;13.94;69.31
22753;BME280;11543;43.144;24.684;2022-10-28T07:58:22;100172.63;;;14.08;69.42
22753;BME280;11543;43.144;24.684;2022-10-28T08:00:48;100178.84;;;14.18;69.07
22753;BME280;11543;43.144;24.684;2022-10-28T08:03:13;100172.00;;;14.33;68.74
22753;BME280;11543;43.144;24.684;2022-10-28T08:05:39;100166.00;;;14.39;68.04
22753;BME280;11543;43.144;24.684;2022-10-28T08:08:04;100172.53;;;14.46;67.85
22753;BME280;11543;43.144;24.684;2022-10-28T08:10:30;100176.16;;;14.64;67.57
22753;BME280;11543;43.144;24.684;2022-10-28T08:12:55;100167.25;;;14.91;66.46
22753;BME280;11543;43.144;24.684;2022-10-28T08:15:22;100173.03;;;15.24;65.04
22753;BME280;11543;43.144;24.684;2022-10-28T08:17:52;100170.66;;;15.39;64.59
22753;BME280;11543;43.144;24.684;2022-10-28T08:20:18;100177.75;;;15.40;64.40
22753;BME280;11543;43.144;24.684;2022-10-28T08:22:44;100182.84;;;15.43;64.20
22753;BME280;11543;43.144;24.684;2022-10-28T08:25:09;100191.34;;;15.48;63.95
22753;BME280;11543;43.144;24.684;2022-10-28T08:27:35;100180.69;;;15.46;63.74
22753;BME280;11543;43.144;24.684;2022-10-28T08:30:00;100171.13;;;15.52;63.39
22753;BME280;11543;43.144;24.684;2022-10-28T08:32:26;100172.50;;;15.56;62.76
22753;BME280;11543;43.144;24.684;2022-10-28T08:34:51;100170.78;;;15.65;62.53
22753;BME280;11543;43.144;24.684;2022-10-28T08:37:17;100184.38;;;15.73;62.32
22753;BME280;11543;43.144;24.684;2022-10-28T08:39:42;100170.72;;;15.74;62.67
22753;BME280;11543;43.144;24.684;2022-10-28T08:42:29;100172.84;;;15.88;62.14
22753;BME280;11543;43.144;24.684;2022-10-28T08:50:19;100174.16;;;16.28;61.52
22753;BME280;11543;43.144;24.684;2022-10-28T08:52:55;100182.88;;;16.40;61.00
22753;BME280;11543;43.144;24.684;2022-10-28T08:55:49;100171.53;;;16.44;60.58
22753;BME280;11543;43.144;24.684;2022-10-28T08:58:25;100177.03;;;16.52;59.96
22753;BME280;11543;43.144;24.684;2022-10-28T09:00:55;100167.25;;;16.60;59.65
22753;BME280;11543;43.144;24.684;2022-10-28T09:03:36;100166.31;;;16.69;59.83
22753;BME280;11543;43.144;24.684;2022-10-28T09:06:07;100171.09;;;16.75;59.53
22753;BME280;11543;43.144;24.684;2022-10-28T09:08:43;100158.94;;;16.87;59.51
22753;BME280;11543;43.144;24.684;2022-10-28T09:16:48;100163.31;;;17.30;58.16
22753;BME280;11543;43.144;24.684;2022-10-28T09:19:47;100157.59;;;17.41;57.86
22753;BME280;11543;43.144;24.684;2022-10-28T09:28:13;100145.97;;;17.73;56.05
22753;BME280;11543;43.144;24.684;2022-10-28T09:36:29;100125.59;;;17.94;54.60
22753;BME280;11543;43.144;24.684;2022-10-28T09:38:58;100134.06;;;18.07;53.33
22753;BME280;11543;43.144;24.684;2022-10-28T09:41:33;100133.38;;;18.21;53.31
22753;BME280;11543;43.144;24.684;2022-10-28T09:46:32;100114.28;;;18.45;52.38
22753;BME280;11543;43.144;24.684;2022-10-28T09:49:02;100111.19;;;18.57;51.90
22753;BME280;11543;43.144;24.684;2022-10-28T09:54:00;100108.75;;;18.78;52.02
22753;BME280;11543;43.144;24.684;2022-10-28T09:56:27;100108.66;;;18.94;50.20
22753;BME280;11543;43.144;24.684;2022-10-28T09:58:57;100106.44;;;18.98;50.23
22753;BME280;11543;43.144;24.684;2022-10-28T10:01:23;100102.94;;;19.20;51.00
22753;BME280;11543;43.144;24.684;2022-10-28T10:03:50;100095.38;;;19.30;49.36
22753;BME280;11543;43.144;24.684;2022-10-28T10:06:20;100101.25;;;19.42;48.70
22753;BME280;11543;43.144;24.684;2022-10-28T10:08:47;100095.09;;;19.48;47.81
22753;BME280;11543;43.144;24.684;2022-10-28T10:11:37;100088.09;;;19.54;47.05
22753;BME280;11543;43.144;24.684;2022-10-28T10:14:11;100087.47;;;19.66;46.18
22753;BME280;11543;43.144;24.684;2022-10-28T10:16:40;100098.22;;;19.83;45.65
22753;BME280;11543;43.144;24.684;2022-10-28T10:19:09;100097.00;;;19.85;45.63
22753;BME280;11543;43.144;24.684;2022-10-28T10:21:44;100097.25;;;19.98;45.97
22753;BME280;11543;43.144;24.684;2022-10-28T10:24:32;100086.75;;;20.10;45.48
22753;BME280;11543;43.144;24.684;2022-10-28T10:27:18;100079.88;;;20.14;44.76
22753;BME280;11543;43.144;24.684;2022-10-28T10:29:47;100083.47;;;20.29;43.99
22753;BME280;11543;43.144;24.684;2022-10-28T10:34:42;100078.59;;;20.40;43.08
22753;BME280;11543;43.144;24.684;2022-10-28T10:37:20;100068.44;;;20.63;42.49
22753;BME280;11543;43.144;24.684;2022-10-28T10:42:47;100066.53;;;20.78;42.39
22753;BME280;11543;43.144;24.684;2022-10-28T10:45:20;100064.28;;;20.82;42.05
22753;BME280;11543;43.144;24.684;2022-10-28T10:47:46;100063.34;;;20.89;42.38
22753;BME280;11543;43.144;24.684;2022-10-28T10:52:51;100054.66;;;21.01;42.15
22753;BME280;11543;43.144;24.684;2022-10-28T10:55:33;100053.03;;;21.06;42.79
22753;BME280;11543;43.144;24.684;2022-10-28T10:57:59;100052.47;;;21.32;42.60
22753;BME280;11543;43.144;24.684;2022-10-28T11:00:35;100058.47;;;21.42;42.12
22753;BME280;11543;43.144;24.684;2022-10-28T11:03:03;100043.81;;;21.50;41.33
22753;BME280;11543;43.144;24.684;2022-10-28T11:05:30;100035.44;;;21.51;41.56
22753;BME280;11543;43.144;24.684;2022-10-28T11:07:57;100044.38;;;21.67;41.33
22753;BME280;11543;43.144;24.684;2022-10-28T11:10:30;100040.75;;;21.81;40.67
22753;BME280;11543;43.144;24.684;2022-10-28T11:13:23;100034.88;;;21.84;40.34
22753;BME280;11543;43.144;24.684;2022-10-28T11:16:03;100041.00;;;21.86;40.71
22753;BME280;11543;43.144;24.684;2022-10-28T11:18:38;100028.38;;;21.85;40.51
22753;BME280;11543;43.144;24.684;2022-10-28T11:21:10;100033.00;;;21.84;40.42
22753;BME280;11543;43.144;24.684;2022-10-28T11:26:24;100032.88;;;21.99;39.58
22753;BME280;11543;43.144;24.684;2022-10-28T11:29:28;100039.69;;;22.03;39.60
22753;BME280;11543;43.144;24.684;2022-10-28T11:42:49;100021.72;;;22.22;39.90
22753;BME280;11543;43.144;24.684;2022-10-28T11:45:42;100017.19;;;22.42;39.04
22753;BME280;11543;43.144;24.684;2022-10-28T11:51:42;100019.75;;;22.50;38.18
22753;BME280;11543;43.144;24.684;2022-10-28T11:54:12;100023.09;;;22.46;38.27
22753;BME280;11543;43.144;24.684;2022-10-28T11:57:00;100008.13;;;22.42;38.53
22753;BME280;11543;43.144;24.684;2022-10-28T12:02:25;100015.13;;;22.51;38.46
22753;BME280;11543;43.144;24.684;2022-10-28T12:13:33;100006.88;;;22.85;38.17
22753;BME280;11543;43.144;24.684;2022-10-28T12:18:57;99995.56;;;23.02;38.31
22753;BME280;11543;43.144;24.684;2022-10-28T12:21:36;100001.47;;;23.18;37.49
22753;BME280;11543;43.144;24.684;2022-10-28T12:24:05;99990.53;;;23.18;36.38
22753;BME280;11543;43.144;24.684;2022-10-28T12:26:39;99985.03;;;23.12;37.09
22753;BME280;11543;43.144;24.684;2022-10-28T12:29:28;99986.31;;;23.16;36.83
22753;BME280;11543;43.144;24.684;2022-10-28T12:32:07;99982.09;;;23.13;36.40
22753;BME280;11543;43.144;24.684;2022-10-28T12:34:39;99985.47;;;23.15;36.18
22753;BME280;11543;43.144;24.684;2022-10-28T12:37:10;99983.78;;;23.14;36.08
22753;BME280;11543;43.144;24.684;2022-10-28T12:39:40;99988.41;;;23.07;36.67
22753;BME280;11543;43.144;24.684;2022-10-28T12:42:24;99995.56;;;23.15;37.45
22753;BME280;11543;43.144;24.684;2022-10-28T12:44:56;99977.03;;;23.24;37.20
22753;BME280;11543;43.144;24.684;2022-10-28T12:47:41;99982.09;;;23.33;37.37
22753;BME280;11543;43.144;24.684;2022-10-28T12:50:24;99984.22;;;23.31;37.02
22753;BME280;11543;43.144;24.684;2022-10-28T12:56:00;99993.06;;;23.33;36.96
22753;BME280;11543;43.144;24.684;2022-10-28T12:58:31;99983.16;;;23.32;36.94
22753;BME280;11543;43.144;24.684;2022-10-28T13:01:11;99982.94;;;23.27;37.04
22753;BME280;11543;43.144;24.684;2022-10-28T13:03:38;99986.31;;;23.29;37.18
22753;BME280;11543;43.144;24.684;2022-10-28T13:12:45;99973.69;;;23.28;36.48
22753;BME280;11543;43.144;24.684;2022-10-28T13:15:27;99985.06;;;23.25;36.43
22753;BME280;11543;43.144;24.684;2022-10-28T13:20:49;99971.97;;;23.14;36.48
22753;BME280;11543;43.144;24.684;2022-10-28T13:23:19;99971.97;;;23.14;36.38
22753;BME280;11543;43.144;24.684;2022-10-28T13:28:19;99973.03;;;23.06;36.67
22753;BME280;11543;43.144;24.684;2022-10-28T13:30:57;99967.13;;;23.03;36.50
22753;BME280;11543;43.144;24.684;2022-10-28T13:33:25;99966.50;;;23.01;36.39
22753;BME280;11543;43.144;24.684;2022-10-28T13:35:53;99958.47;;;22.93;36.48
22753;BME280;11543;43.144;24.684;2022-10-28T13:38:24;99961.22;;;22.93;36.50
22753;BME280;11543;43.144;24.684;2022-10-28T13:49:25;99959.47;;;22.78;36.45
22753;BME280;11543;43.144;24.684;2022-10-28T13:57:10;99963.84;;;22.66;36.65
22753;BME280;11543;43.144;24.684;2022-10-28T13:59:50;99953.94;;;22.59;37.00
22753;BME280;11543;43.144;24.684;2022-10-28T14:02:22;99950.78;;;22.55;37.36
22753;BME280;11543;43.144;24.684;2022-10-28T14:04:57;99959.00;;;22.55;37.39
22753;BME280;11543;43.144;24.684;2022-10-28T14:07:29;99949.47;;;22.51;36.88
22753;BME280;11543;43.144;24.684;2022-10-28T14:10:22;99959.78;;;22.49;37.27
22753;BME280;11543;43.144;24.684;2022-10-28T14:12:51;99957.88;;;22.43;37.38
22753;BME280;11543;43.144;24.684;2022-10-28T14:15:29;99956.59;;;22.39;37.37
22753;BME280;11543;43.144;24.684;2022-10-28T14:20:34;99954.22;;;22.29;37.22
22753;BME280;11543;43.144;24.684;2022-10-28T14:33:34;99951.81;;;22.06;38.07
22753;BME280;11543;43.144;24.684;2022-10-28T14:39:15;99957.22;;;22.00;38.26
22753;BME280;11543;43.144;24.684;2022-10-28T14:42:25;99963.28;;;21.95;38.43
22753;BME280;11543;43.144;24.684;2022-10-28T14:50:53;99960.38;;;21.69;38.83
22753;BME280;11543;43.144;24.684;2022-10-28T14:53:28;99959.47;;;21.61;38.80
22753;BME280;11543;43.144;24.684;2022-10-28T14:56:05;99961.34;;;21.61;38.84
22753;BME280;11543;43.144;24.684;2022-10-28T14:58:51;99958.97;;;21.51;39.12
22753;BME280;11543;43.144;24.684;2022-10-28T15:01:22;99951.31;;;21.40;39.11
22753;BME280;11543;43.144;24.684;2022-10-28T15:04:00;99957.19;;;21.37;39.34
22753;BME280;11543;43.144;24.684;2022-10-28T15:06:39;99961.31;;;21.26;39.55
22753;BME280;11543;43.144;24.684;2022-10-28T15:11:42;99966.81;;;21.12;39.63
22753;BME280;11543;43.144;24.684;2022-10-28T15:16:50;99960.19;;;20.99;40.00
22753;BME280;11543;43.144;24.684;2022-10-28T15:19:18;99959.66;;;20.89;40.21
22753;BME280;11543;43.144;24.684;2022-10-28T15:22:19;99957.72;;;20.83;40.18
22753;BME280;11543;43.144;24.684;2022-10-28T15:25:14;99971.72;;;20.80;40.36
22753;BME280;11543;43.144;24.684;2022-10-28T15:27:42;99973.72;;;20.72;40.61
22753;BME280;11543;43.144;24.684;2022-10-28T15:30:29;99973.25;;;20.68;40.79
22753;BME280;11543;43.144;24.684;2022-10-28T15:33:16;99973.19;;;20.61;40.92
22753;BME280;11543;43.144;24.684;2022-10-28T15:35:42;99969.72;;;20.53;41.20
22753;BME280;11543;43.144;24.684;2022-10-28T15:40:46;99981.41;;;20.47;41.21
22753;BME280;11543;43.144;24.684;2022-10-28T15:43:38;99987.97;;;20.38;41.52
22753;BME280;11543;43.144;24.684;2022-10-28T15:46:07;99990.16;;;20.27;41.19
22753;BME280;11543;43.144;24.684;2022-10-28T15:48:33;99988.38;;;20.20;41.33
22753;BME280;11543;43.144;24.684;2022-10-28T15:51:12;99988.56;;;20.18;41.44
22753;BME280;11543;43.144;24.684;2022-10-28T15:53:44;99986.41;;;20.14;41.46
22753;BME280;11543;43.144;24.684;2022-10-28T15:58:40;99990.06;;;20.06;41.41
22753;BME280;11543;43.144;24.684;2022-10-28T16:01:27;99992.75;;;19.91;41.36
22753;BME280;11543;43.144;24.684;2022-10-28T16:03:53;99985.53;;;19.84;41.44
22753;BME280;11543;43.144;24.684;2022-10-28T16:06:21;99992.19;;;19.81;41.86
22753;BME280;11543;43.144;24.684;2022-10-28T16:09:11;99994.72;;;19.83;42.34
22753;BME280;11543;43.144;24.684;2022-10-28T16:11:40;99998.00;;;19.78;42.27